Weather observations for the past three days for
Central Kentucky Regional Airport
Imperial (Metric)
Date Time (edt) Wind (mph) Vis. (mi.) Weather Sky Cond. Temperature (ºF) Relative Humidity Wind Chill (°F) Heat Index (°F) Pressure Precipitation (in)
Air Dwpt 6 hour altimeter (in) sea level (mb) 1 hr 3 hr 6 hr
Max. Min.
06 08:35 N 9 2.50 Fog/Mist OVC003 51.8 51.8 100% 29.87 0.0
06 08:15 NW 9 0.50 Fog OVC003 53.6 53.6 100% 29.85 0.0
06 07:55 NW 9 10.00 Overcast OVC003 55.4 55.4 100% 29.82 0.0
06 07:35 W 6 10.00 Overcast OVC007 55.4 55.4 100% 29.82 0.0
06 07:15 W 10 10.00 Overcast BKN005 OVC010 59 57.2 94% 29.81 0.0
06 06:55 W 5 7.00 Overcast SCT005 OVC010 59 57.2 94% 29.79 0.0 0.04
06 06:35 W 5 7.00 Light Rain BKN010 OVC013 59 59 100% 29.78 0.0 0.03
06 06:15 SW 7 7.00 Rain BKN007 OVC013 59 59 100% 29.78 0.0 0.01
06 05:55 SW 6 10.00 Light Rain BKN007 BKN020 BKN027 59 59 100% 29.78 0.0 0.19
06 05:35 SW 3 7.00 Light Rain SCT013 BKN021 BKN027 59 57.2 94% 29.77 0.0 0.18
06 05:15 W 8 7.00 Heavy Rain BKN021 BKN027 OVC033 59 57.2 94% 29.78 0.0 0.07
06 04:55 W 6 10.00 Overcast OVC033 59 57.2 94% 29.76 0.0
06 04:35 NW 8 10.00 Overcast OVC035 59 57.2 94% 29.75 0.0
06 04:15 S 12 G 16 10.00 Overcast OVC035 59 57.2 94% 29.73 0.0
06 03:55 S 10 10.00 Light Rain BKN035 OVC040 59 57.2 94% 29.73 0.0 0.05
06 03:35 SW 10 G 17 7.00 Rain BKN036 OVC042 59 55.4 88% 29.74 0.0 0.04
06 03:15 S 9 10.00 Light Drizzle OVC039 59 55.4 88% 29.73 0.0
06 02:55 S 10 G 16 10.00 Overcast BKN041 OVC049 59 55.4 88% 29.72 0.0 0.01
06 02:35 S 13 G 20 7.00 Light Rain BKN041 BKN055 59 53.6 82% 29.73 0.0 0.01
06 02:15 S 12 G 18 10.00 Light Rain SCT040 BKN045 BKN055 59 53.6 82% 29.75 0.0
06 01:55 S 12 G 18 10.00 Overcast OVC042 59 51.8 77% 29.75 0.0
06 01:15 S 13 G 24 10.00 Light Rain OVC040 60.8 51.8 72% 29.77 0.0
06 00:55 S 16 G 20 10.00 Overcast OVC040 60.8 51.8 72% 29.77 0.0
06 00:35 S 13 G 25 10.00 Overcast OVC042 60.8 51.8 72% 29.77 0.0
06 00:15 S 14 G 20 10.00 Overcast OVC042 60.8 51.8 72% 29.78 0.0
05 23:55 S 12 G 17 10.00 Overcast OVC042 59 51.8 77% 29.79 0.0
05 23:35 S 13 G 22 10.00 Light Rain BKN044 BKN050 OVC060 60.8 51.8 72% 29.8 0.0
05 23:15 S 23 G 29 10.00 Light Rain and Breezy SCT047 BKN060 OVC080 64.4 50 60% 29.81 0.0
05 22:55 SW 24 G 36 10.00 Light Rain and Breezy SCT049 BKN055 BKN070 66.2 46.4 49% 29.82 0.0
05 22:35 SW 14 G 20 10.00 Overcast BKN065 BKN085 OVC110 68 44.6 43% 29.81 0.0
05 22:15 SW 13 G 21 10.00 Overcast OVC065 68 46.4 46% 29.8 0.0
05 21:55 S 9 10.00 Overcast BKN070 OVC080 66.2 46.4 49% 29.79 0.0
05 21:35 S 6 10.00 Overcast BKN070 OVC090 66.2 48.2 52% 29.78 0.0
05 21:15 S 5 10.00 Mostly Cloudy SCT070 BKN090 66.2 48.2 52% 29.78 0.0
05 20:55 SW 6 10.00 Mostly Cloudy SCT070 SCT090 BKN110 68 48.2 49% 29.79 0.0
05 20:35 S 8 10.00 Partly Cloudy SCT110 68 46.4 46% 29.77 0.0
05 20:15 S 8 10.00 Fair CLR 68 46.4 46% 29.77 0.0
05 19:55 S 7 10.00 Partly Cloudy SCT090 68 48.2 49% 29.78 0.0
05 19:35 S 9 10.00 Partly Cloudy SCT090 68 50 53% 29.8 0.0
05 19:15 S 6 10.00 Fair CLR 69.8 50 50% 29.79 0.0
05 18:55 S 5 10.00 Partly Cloudy SCT095 69.8 50 50% 29.8 0.0
05 18:35 S 5 10.00 Partly Cloudy SCT070 69.8 50 50% 29.81 0.0
05 18:15 S 5 10.00 Mostly Cloudy BKN070 69.8 50 50% 29.81 0.0
05 17:55 SW 5 10.00 Overcast OVC080 69.8 48.2 46% 29.82 0.0
05 17:35 SW 7 10.00 Overcast OVC090 68 48.2 49% 29.83 0.0
05 17:15 SW 8 10.00 Mostly Cloudy BKN090 69.8 46.4 43% 29.83 0.0
05 16:55 S 12 10.00 Partly Cloudy SCT100 69.8 46.4 43% 29.83 0.0
05 16:35 SW 8 10.00 Fair CLR 69.8 46.4 43% 29.84 0.0
05 16:15 SW 12 10.00 Fair CLR 69.8 46.4 43% 29.85 0.0
05 15:35 SW 10 G 20 10.00 Fair CLR 71.6 46.4 41% 29.87 0.0
05 15:15 SW 14 G 22 10.00 Partly Cloudy SCT050 71.6 46.4 41% 29.88 0.0
05 14:55 SW 18 G 23 10.00 Partly Cloudy SCT050 71.6 46.4 41% 29.88 0.0
05 14:35 SW 17 G 26 10.00 Partly Cloudy SCT050 71.6 46.4 41% 29.89 0.0
05 14:15 SW 12 G 25 10.00 Partly Cloudy SCT050 SCT060 71.6 46.4 41% 29.89 0.0
05 13:55 SW 16 G 30 10.00 Partly Cloudy SCT050 69.8 46.4 43% 29.9 0.0
05 13:35 SW 14 G 24 10.00 Partly Cloudy SCT050 SCT060 71.6 46.4 41% 29.9 0.0
05 13:15 SW 13 G 22 10.00 Fair CLR 69.8 48.2 46% 29.91 0.0
05 12:55 SW 16 G 23 10.00 Partly Cloudy SCT060 69.8 48.2 46% 29.92 0.0
05 12:35 SW 14 G 23 10.00 Fair CLR 69.8 48.2 46% 29.92 0.0
05 12:15 SW 14 G 23 10.00 Fair CLR 69.8 46.4 43% 29.92 0.0
05 11:55 SW 14 G 26 10.00 Mostly Cloudy BKN070 71.6 46.4 41% 29.92 0.0
05 11:35 S 12 G 17 10.00 Partly Cloudy SCT070 69.8 46.4 43% 29.91 0.0
05 11:15 SW 14 G 21 10.00 Fair CLR 68 46.4 46% 29.91 0.0
05 10:55 S 13 10.00 Fair CLR 68 46.4 46% 29.91 0.0
05 10:35 S 13 G 18 10.00 Fair CLR 68 46.4 46% 29.91 0.0
05 10:15 SW 14 10.00 Fair CLR 68 44.6 43% 29.91 0.0
05 09:55 S 15 G 18 10.00 Fair CLR 66.2 44.6 46% 29.92 0.0
05 09:35 S 10 10.00 Fair CLR 64.4 44.6 49% 29.91 0.0
05 09:15 SW 9 10.00 Partly Cloudy SCT060 64.4 44.6 49% 29.92 0.0
05 08:55 SW 12 10.00 Partly Cloudy SCT060 64.4 44.6 49% 29.92 0.0
05 08:35 S 12 10.00 Partly Cloudy SCT060 62.6 44.6 52% 29.91 0.0
05 08:15 S 10 10.00 Partly Cloudy SCT060 62.6 44.6 52% 29.91 0.0
05 07:55 S 10 10.00 Mostly Cloudy BKN060 62.6 44.6 52% 29.91 0.0
05 07:35 S 10 10.00 Mostly Cloudy BKN060 60.8 44.6 55% 29.91 0.0
05 07:15 S 10 10.00 Mostly Cloudy BKN060 60.8 44.6 55% 29.9 0.0
05 06:55 S 10 10.00 Mostly Cloudy BKN060 60.8 42.8 52% 29.89 0.0
05 06:35 S 12 10.00 Partly Cloudy SCT060 60.8 42.8 52% 29.88 0.0
05 06:15 S 9 10.00 Fair CLR 60.8 42.8 52% 29.87 0.0
05 05:55 SW 10 10.00 Fair CLR 60.8 42.8 52% 29.87 0.0
05 05:35 S 12 10.00 Fair CLR 60.8 42.8 52% 29.86 0.0
05 05:15 SW 9 10.00 Fair CLR 60.8 42.8 52% 29.86 0.0
05 04:55 S 12 G 17 10.00 Fair CLR 60.8 42.8 52% 29.86 0.0
05 04:35 S 13 10.00 Fair CLR 60.8 42.8 52% 29.86 0.0
05 04:15 S 10 10.00 Fair CLR 60.8 42.8 52% 29.86 0.0
05 03:55 S 9 10.00 Fair CLR 60.8 44.6 55% 29.86 0.0
05 03:35 S 9 10.00 Fair CLR 60.8 44.6 55% 29.86 0.0
05 03:15 S 9 10.00 Fair CLR 62.6 44.6 52% 29.86 0.0
05 02:55 S 12 10.00 Fair CLR 62.6 44.6 52% 29.85 0.0
05 02:35 S 12 10.00 Fair CLR 62.6 44.6 52% 29.85 0.0
05 02:15 SW 10 10.00 Fair CLR 64.4 44.6 49% 29.86 0.0
05 01:55 SW 10 10.00 Fair CLR 64.4 44.6 49% 29.87 0.0
05 01:35 SW 10 G 16 10.00 Fair CLR 64.4 44.6 49% 29.87 0.0
05 01:15 SW 10 10.00 Fair CLR 64.4 44.6 49% 29.87 0.0
05 00:55 SW 8 10.00 Fair CLR 64.4 44.6 49% 29.87 0.0
05 00:35 SW 8 10.00 Fair CLR 64.4 44.6 49% 29.86 0.0
05 00:15 SW 9 10.00 Fair CLR 66.2 44.6 46% 29.85 0.0
04 23:55 SW 10 10.00 Fair CLR 68 44.6 43% 29.84 0.0
04 23:35 SW 10 10.00 Fair CLR 69.8 44.6 40% 29.84 0.0
04 23:15 SW 15 G 22 10.00 Fair CLR 69.8 44.6 40% 29.83 0.0
04 22:55 SW 17 G 22 10.00 Fair CLR 69.8 44.6 40% 29.82 0.0
04 22:35 S 17 G 22 10.00 Fair CLR 69.8 44.6 40% 29.81 0.0
04 22:15 S 12 G 22 10.00 Fair CLR 69.8 44.6 40% 29.81 0.0
04 21:55 S 13 10.00 Fair CLR 69.8 44.6 40% 29.81 0.0
04 21:35 S 12 10.00 Fair CLR 69.8 44.6 40% 29.81 0.0
04 21:15 S 10 10.00 Fair CLR 69.8 44.6 40% 29.81 0.0
04 20:55 S 9 10.00 Fair CLR 69.8 44.6 40% 29.81 0.0
04 20:35 S 8 10.00 Fair CLR 69.8 44.6 40% 29.81 0.0
04 20:15 S 7 10.00 Fair CLR 71.6 44.6 38% 29.81 0.0
04 19:55 SW 10 10.00 Partly Cloudy SCT070 SCT080 71.6 42.8 36% 29.82 0.0
04 19:35 SW 9 10.00 Fair CLR 73.4 42.8 33% 29.83 0.0
04 19:15 SW 14 G 20 10.00 Fair CLR 75.2 44.6 34% 77 29.84 0.0
04 18:55 SW 9 10.00 Fair CLR 77 46.4 34% 78 29.83 0.0
04 18:35 SW 12 G 16 10.00 Fair CLR 77 44.6 32% 78 29.84 0.0
04 18:15 SW 12 G 18 10.00 Fair CLR 77 44.6 32% 78 29.84 0.0
04 17:55 SW 14 G 21 10.00 Partly Cloudy SCT070 77 44.6 32% 78 29.84 0.0
04 17:35 SW 13 G 17 10.00 Partly Cloudy SCT070 77 44.6 32% 78 29.84 0.0
04 17:15 W 15 G 23 10.00 Fair CLR 78.8 44.6 30% 79 29.84 0.0
04 16:55 SW 12 G 17 10.00 Partly Cloudy SCT065 77 44.6 32% 78 29.84 0.0
04 16:35 SW 12 G 17 10.00 Partly Cloudy SCT065 77 44.6 32% 78 29.84 0.0
04 16:15 SW 12 10.00 Fair CLR 77 44.6 32% 78 29.85 0.0
04 15:55 SW 12 G 16 10.00 Fair CLR 77 46.4 34% 78 29.87 0.0
04 15:35 SW 15 G 20 10.00 Fair CLR 77 46.4 34% 78 29.88 0.0
04 15:15 SW 14 G 20 10.00 Fair CLR 77 46.4 34% 78 29.88 0.0
04 14:55 SW 16 G 21 10.00 Fair CLR 75.2 46.4 36% 77 29.88 0.0
04 14:35 SW 15 G 21 10.00 Fair CLR 73.4 46.4 38% 29.88 0.0
04 14:15 SW 15 G 23 10.00 Fair CLR 73.4 46.4 38% 29.89 0.0
04 13:55 S 16 G 20 10.00 Fair CLR 71.6 46.4 41% 29.89 0.0
04 13:35 S 18 G 22 10.00 Fair CLR 71.6 46.4 41% 29.89 0.0
04 13:15 S 14 G 20 10.00 Fair CLR 69.8 46.4 43% 29.9 0.0
04 12:55 SW 18 G 23 10.00 Fair CLR 69.8 46.4 43% 29.91 0.0
04 12:35 S 12 G 23 10.00 Fair CLR 68 44.6 43% 29.92 0.0
04 12:15 S 15 G 20 10.00 Fair CLR 66.2 46.4 49% 29.92 0.0
04 11:55 S 15 G 21 10.00 Fair CLR 64.4 44.6 49% 29.93 0.0
04 11:35 S 13 10.00 Fair CLR 64.4 44.6 49% 29.93 0.0
04 11:15 S 13 10.00 Fair CLR 62.6 44.6 52% 29.94 0.0
04 10:55 S 13 G 22 10.00 Fair CLR 60.8 44.6 55% 29.95 0.0
04 10:35 S 16 G 23 10.00 Fair CLR 60.8 44.6 55% 29.95 0.0
04 10:15 S 16 G 20 10.00 Fair CLR 57.2 42.8 59% 29.95 0.0
04 09:55 S 14 G 23 10.00 Fair CLR 55.4 42.8 63% 29.96 0.0
04 09:35 SW 16 G 21 10.00 Fair CLR 53.6 42.8 67% 29.97 0.0
04 09:15 S 15 10.00 Fair CLR 53.6 42.8 67% 29.97 0.0
04 08:55 S 14 10.00 Partly Cloudy SCT070 SCT080 51.8 42.8 72% 29.98 0.0
04 08:35 S 13 10.00 Partly Cloudy SCT070 SCT085 51.8 44.6 77% 29.98 0.0
04 08:15 S 13 10.00 Fair CLR 51.8 44.6 77% 29.97 0.0
04 07:55 S 13 G 16 10.00 Partly Cloudy SCT110 51.8 44.6 77% 29.96 0.0 0.07
04 07:35 S 12 10.00 Mostly Cloudy SCT060 BKN110 48.2 46.4 94% 44 29.97 0.0 0.06
04 07:15 S 9 7.00 Light Rain SCT027 BKN044 OVC055 48.2 44.6 87% 45 29.98 0.0 0.06
04 06:55 W 8 G 18 7.00 Rain SCT027 BKN049 OVC075 50 42.8 76% 47 30.01 0.0 0.12
04 06:35 S 13 10.00 Light Rain SCT065 OVC075 51.8 41 67% 29.95 0.0
04 06:15 S 16 G 22 10.00 Light Rain OVC065 51.8 41 67% 29.93 0.0
04 05:55 S 14 G 18 10.00 Light Rain OVC075 51.8 39.2 62% 29.94 0.0
04 05:15 S 7 10.00 Mostly Cloudy SCT075 BKN090 BKN110 50 41 71% 48 29.95 0.0
04 04:55 SW 7 10.00 Mostly Cloudy BKN110 50 41 71% 48 29.95 0.0
04 04:35 SW 10 10.00 Mostly Cloudy BKN110 51.8 41 67% 29.96 0.0
04 04:15 S 13 G 21 10.00 Light Rain SCT100 SCT120 51.8 39.2 62% 29.92 0.0
04 03:55 S 12 G 17 10.00 Light Rain SCT041 SCT055 BKN085 51.8 37.4 58% 29.96 0.0
04 03:35 SW 12 G 16 10.00 Light Rain SCT075 OVC090 53.6 35.6 51% 29.99 0.0
04 03:15 SW 9 10.00 Mostly Cloudy BKN090 BKN110 53.6 33.8 47% 29.96 0.0
04 02:55 S 10 10.00 Mostly Cloudy SCT090 BKN110 55.4 33.8 44% 29.96 0.0
04 02:35 S 10 10.00 Partly Cloudy SCT090 55.4 33.8 44% 29.96 0.0
04 02:15 S 12 10.00 Fair CLR 53.6 33.8 47% 29.98 0.0
04 01:55 S 9 10.00 Partly Cloudy SCT120 53.6 33.8 47% 30 0.0
04 01:35 S 8 10.00 Mostly Cloudy BKN120 53.6 33.8 47% 30 0.0
04 01:15 S 8 10.00 Overcast OVC120 51.8 33.8 50% 30 0.0
04 00:55 S 7 10.00 Mostly Cloudy BKN120 51.8 33.8 50% 30 0.0
04 00:35 S 6 10.00 Fair CLR 51.8 35.6 54% 30.01 0.0
04 00:15 S 6 10.00 Fair CLR 51.8 33.8 50% 30.01 0.0
03 23:55 S 8 10.00 Fair CLR 51.8 32 47% 30.01 0.0
03 23:35 S 7 10.00 Fair CLR 51.8 33.8 50% 30.02 0.0
03 23:15 S 6 10.00 Fair CLR 51.8 33.8 50% 30.02 0.0
03 22:55 Calm 10.00 Fair CLR 51.8 32 47% 30.03 0.0
03 22:35 S 5 10.00 Fair CLR 51.8 32 47% 30.02 0.0
03 22:15 S 7 10.00 Fair CLR 53.6 32 44% 30.01 0.0
03 21:55 S 6 10.00 Fair CLR 53.6 33.8 47% 30 0.0
03 21:35 S 7 10.00 Fair CLR 55.4 33.8 44% 30 0.0
03 21:15 S 6 10.00 Fair CLR 55.4 33.8 44% 30 0.0
03 20:55 S 5 10.00 Fair CLR 55.4 33.8 44% 29.99 0.0
03 20:35 SW 5 10.00 Fair CLR 57.2 33.8 41% 29.99 0.0
03 20:15 SW 6 10.00 Fair CLR 59 33.8 39% 29.99 0.0
03 19:55 SW 5 10.00 Fair CLR 59 33.8 39% 29.99 0.0
03 19:35 W 6 10.00 Fair CLR 60.8 33.8 36% 30.01 0.0
03 19:15 SW 9 10.00 Fair CLR 60.8 32 34% 30.01 0.0
03 18:55 SW 9 10.00 Fair CLR 60.8 32 34% 30.01 0.0
03 18:35 W 10 10.00 Fair CLR 62.6 32 32% 30.03 0.0
03 18:15 SW 7 10.00 Fair CLR 62.6 30.2 30% 30.01 0.0
03 17:55 W 8 G 16 10.00 Fair CLR 62.6 30.2 30% 30.02 0.0
03 17:35 S 10 10.00 Fair CLR 62.6 30.2 30% 30.02 0.0
03 17:15 SW 9 G 17 10.00 Fair CLR 62.6 28.4 27% 30.03 0.0
03 16:55 W 10 10.00 Fair CLR 62.6 30.2 30% 30.05 0.0
03 16:35 W 10 G 16 10.00 Fair CLR 62.6 28.4 27% 30.06 0.0
03 16:15 SW 9 10.00 Fair CLR 62.6 28.4 27% 30.07 0.0
03 15:55 SW 10 10.00 Fair CLR 62.6 26.6 25% 30.08 0.0
03 15:35 SW 9 G 18 10.00 Fair CLR 62.6 26.6 25% 30.09 0.0
03 15:15 S 13 G 16 10.00 Fair CLR 60.8 26.6 27% 30.09 0.0
03 14:35 W 13 10.00 Fair CLR 60.8 26.6 27% 30.11 0.0
03 14:15 SW 6 10.00 Fair CLR 60.8 26.6 27% 30.12 0.0
03 13:50 SW 7 10.00 Fair CLR 60.8 26.6 27% 30.13 0.0
03 13:35 SW 6 10.00 Fair CLR 60.8 24.8 25% 30.13 0.0
03 13:15 W 6 10.00 Fair CLR 59 26.6 29% 30.15 0.0
03 12:55 S 7 10.00 Fair CLR 59 26.6 29% 30.15 0.0
03 12:35 Calm 10.00 Fair CLR 59 23 25% 30.16 0.0
03 12:15 S 5 10.00 Fair CLR 59 24.8 27% 30.16 0.0
03 11:55 Calm 10.00 Fair CLR 55.4 23 28% 30.17 0.0
03 11:35 E 5 10.00 Fair CLR 55.4 23 28% 30.18 0.0
03 11:15 NW 5 10.00 Fair CLR 55.4 24.8 31% 30.18 0.0
03 10:55 Calm 10.00 Fair CLR 53.6 23 30% 30.18 0.0
03 10:35 SW 6 10.00 Fair CLR 53.6 24.8 33% 30.18 0.0
03 10:15 S 5 10.00 Fair CLR 53.6 23 30% 30.18 0.0
03 09:55 SW 5 10.00 Fair CLR 51.8 26.6 38% 30.18 0.0
03 09:35 SW 6 10.00 Fair CLR 50 28.4 43% 48 30.18 0.0
03 09:15 S 5 10.00 Fair CLR 46.4 32 57% 45 30.18 0.0
Date Time (edt) Wind (mph) Vis. (mi.) Weather Sky Cond. Air Dwpt Max. Min. Relative Humidity Wind Chill (°F) Heat Index (°F) altimeter (in) sea level (mb) 1 hr 3 hr 6 hr
6 hour
Temperature (ºF) Pressure Precipitation (in)